createdAt,value
2018-08-10T00:00:41.088Z,65.60
2018-08-10T00:05:35.788Z,65.90
2018-08-10T00:10:30.024Z,66.60
2018-08-10T00:15:24.624Z,66.80
2018-08-10T00:20:19.248Z,67.80
2018-08-10T00:25:15.424Z,66.50
2018-08-10T00:30:14.004Z,65.50
2018-08-10T00:35:09.776Z,65.50
2018-08-10T00:40:06.901Z,65.50
2018-08-10T00:45:08.976Z,64.20
2018-08-10T00:50:06.105Z,65.10
2018-08-10T00:55:00.608Z,65.60
2018-08-10T00:59:56.302Z,63.70
2018-08-10T01:04:50.700Z,62.20
2018-08-10T01:09:45.306Z,62.90
2018-08-10T01:14:39.769Z,62.70
2018-08-10T01:19:34.432Z,62.30
2018-08-10T01:24:28.908Z,60.80
2018-08-10T01:29:23.439Z,60.80
2018-08-10T01:34:17.621Z,61.40
2018-08-10T01:39:13.072Z,63.10
2018-08-10T01:44:08.806Z,61.50
2018-08-10T01:49:03.872Z,61.60
2018-08-10T01:53:58.346Z,61.40
2018-08-10T01:58:52.963Z,61.70
2018-08-10T02:03:47.164Z,61.50
2018-08-10T02:08:42.107Z,62.20
2018-08-10T02:13:36.505Z,62.70
2018-08-10T02:18:31.257Z,62.90
2018-08-10T02:23:26.016Z,63.30
2018-08-10T02:28:20.478Z,63.50
2018-08-10T02:33:14.743Z,63.50
2018-08-10T02:38:09.448Z,64.30
2018-08-10T02:43:03.809Z,64.80
2018-08-10T02:47:59.894Z,65.20
2018-08-10T02:52:54.111Z,65.10
2018-08-10T02:57:49.185Z,65.80
2018-08-10T03:02:44.131Z,65.30
2018-08-10T03:07:39.320Z,65.20
2018-08-10T03:12:33.833Z,65.10
2018-08-10T03:17:28.609Z,65.10
2018-08-10T03:22:22.937Z,65.40
2018-08-10T03:27:17.793Z,64.70
2018-08-10T03:32:12.285Z,64.70
2018-08-10T03:37:08.773Z,64.90
2018-08-10T03:42:36.707Z,64.00
2018-08-10T03:47:31.148Z,63.80
2018-08-10T03:52:27.354Z,63.80
2018-08-10T03:57:21.550Z,63.60
2018-08-10T04:02:17.484Z,63.30
2018-08-10T04:07:12.112Z,62.10
2018-08-10T04:12:07.919Z,62.90
2018-08-10T04:17:04.412Z,63.60
2018-08-10T04:21:59.062Z,63.30
2018-08-10T04:26:53.530Z,63.80
2018-08-10T04:31:47.892Z,64.10
2018-08-10T04:36:42.114Z,64.00
2018-08-10T04:41:36.707Z,63.30
2018-08-10T04:46:31.270Z,63.60
2018-08-10T04:51:26.195Z,64.40
2018-08-10T04:56:21.085Z,63.60
2018-08-10T05:01:15.612Z,62.50
2018-08-10T05:06:10.113Z,63.50
2018-08-10T05:11:05.677Z,61.40
2018-08-10T05:16:01.016Z,61.60
2018-08-10T05:20:55.803Z,60.60
2018-08-10T05:25:50.260Z,60.00
2018-08-10T05:30:45.420Z,60.10
2018-08-10T05:35:39.962Z,60.50
2018-08-10T05:40:34.359Z,60.20
2018-08-10T05:45:28.879Z,60.30
2018-08-10T05:50:23.207Z,59.60
2018-08-10T05:55:19.647Z,59.20
2018-08-10T06:00:15.872Z,58.90
2018-08-10T06:05:10.328Z,57.80
2018-08-10T06:10:06.603Z,56.40
2018-08-10T06:15:01.060Z,55.70
2018-08-10T06:19:55.804Z,57.50
2018-08-10T06:25:02.920Z,57.00
2018-08-10T06:30:05.747Z,58.20
2018-08-10T06:35:18.645Z,58.90
2018-08-10T06:40:43.392Z,59.60
2018-08-10T06:45:38.333Z,59.60
2018-08-10T06:50:32.936Z,60.20
2018-08-10T06:55:27.457Z,60.20
2018-08-10T07:00:24.390Z,60.00
2018-08-10T07:05:19.029Z,59.50
2018-08-10T07:10:14.675Z,60.40
2018-08-10T07:15:09.510Z,61.60
2018-08-10T07:20:05.112Z,62.60
2018-08-10T07:24:59.516Z,62.70
2018-08-10T07:29:53.833Z,62.80
2018-08-10T07:34:55.357Z,62.40
2018-08-10T07:39:50.073Z,61.80
2018-08-10T07:44:44.938Z,61.80
2018-08-10T07:49:39.752Z,61.40
2018-08-10T07:54:35.074Z,60.90
2018-08-10T07:59:30.258Z,61.10
2018-08-10T08:04:24.997Z,60.40
2018-08-10T08:09:19.260Z,60.00
2018-08-10T08:14:14.417Z,59.90
2018-08-10T08:19:10.208Z,58.40
2018-08-10T08:24:06.549Z,58.10
2018-08-10T08:29:01.443Z,58.30
2018-08-10T08:34:06.411Z,59.10
2018-08-10T08:39:26.669Z,58.90
2018-08-10T08:44:33.745Z,59.70
2018-08-10T08:49:27.982Z,60.20
2018-08-10T08:55:29.567Z,59.90
2018-08-10T09:00:24.340Z,57.60
2018-08-10T09:05:22.469Z,53.40
2018-08-10T09:10:17.772Z,51.00
2018-08-10T09:15:15.751Z,47.30
2018-08-10T09:20:12.023Z,46.00
2018-08-10T09:25:09.828Z,47.00
2018-08-10T09:30:06.496Z,49.60
2018-08-10T09:35:01.972Z,50.80
2018-08-10T09:39:56.295Z,51.50
2018-08-10T09:44:50.828Z,52.40
2018-08-10T09:49:46.737Z,51.50
2018-08-10T09:55:36.063Z,51.40
2018-08-10T10:00:35.438Z,50.70
2018-08-10T10:05:30.898Z,50.60
2018-08-10T10:10:25.410Z,51.00
2018-08-10T10:15:20.172Z,49.70
2018-08-10T10:20:15.885Z,48.70
2018-08-10T10:25:10.710Z,48.70
2018-08-10T10:30:07.508Z,48.70
2018-08-10T10:35:02.731Z,48.80
2018-08-10T10:39:57.191Z,48.00
2018-08-10T10:44:51.891Z,46.60
2018-08-10T10:49:47.117Z,46.10
2018-08-10T10:54:43.490Z,45.50
2018-08-10T10:59:39.225Z,46.30
2018-08-10T11:04:37.857Z,44.60
2018-08-10T11:09:32.847Z,43.90
2018-08-10T11:14:34.449Z,41.00
2018-08-10T11:19:30.185Z,40.90
2018-08-10T11:24:24.610Z,43.40
2018-08-10T11:29:19.557Z,41.50
2018-08-10T11:34:14.136Z,39.80
2018-08-10T11:39:11.713Z,40.40
2018-08-10T11:44:06.925Z,39.60
2018-08-10T11:49:01.443Z,40.10
2018-08-10T11:53:55.956Z,41.70
2018-08-10T11:58:51.846Z,42.10
2018-08-10T12:03:47.007Z,41.70
2018-08-10T12:08:41.676Z,42.20
2018-08-10T12:13:36.347Z,41.20
2018-08-10T12:18:32.233Z,42.40
2018-08-10T12:23:28.411Z,42.10
2018-08-10T12:28:22.857Z,42.10
2018-08-10T12:33:17.275Z,42.20
2018-08-10T12:38:12.054Z,42.00
2018-08-10T12:43:06.479Z,40.60
2018-08-10T12:48:00.832Z,41.10
2018-08-10T12:52:55.812Z,40.20
2018-08-10T12:57:50.617Z,41.00
2018-08-10T13:02:45.401Z,41.40
2018-08-10T13:07:39.956Z,42.00
2018-08-10T13:12:34.293Z,42.50
2018-08-10T13:17:51.213Z,42.10
2018-08-10T13:22:46.289Z,42.00
2018-08-10T13:27:40.663Z,41.30
2018-08-10T13:32:35.270Z,41.00
2018-08-10T13:37:30.176Z,41.50
2018-08-10T13:42:32.039Z,43.50
2018-08-10T13:47:26.676Z,42.10
2018-08-10T13:52:21.000Z,41.50
2018-08-10T13:57:15.667Z,41.10
2018-08-10T14:02:10.141Z,39.30
2018-08-10T14:07:07.614Z,37.60
2018-08-10T14:12:02.231Z,37.80
2018-08-10T14:17:07.921Z,38.70
2018-08-10T14:22:05.381Z,38.70
2018-08-10T14:27:06.649Z,39.00
2018-08-10T14:32:02.644Z,39.80
2018-08-10T14:36:58.568Z,38.30
2018-08-10T14:41:52.849Z,37.00
2018-08-10T14:46:47.692Z,44.60
2018-08-10T14:51:41.945Z,49.10
2018-08-10T14:56:36.803Z,50.10
2018-08-10T15:01:31.348Z,50.40
2018-08-10T15:06:25.674Z,50.00
2018-08-10T15:11:19.933Z,50.60
2018-08-10T15:16:14.803Z,50.30
2018-08-10T15:21:09.062Z,51.60
2018-08-10T15:26:04.001Z,50.70
2018-08-10T15:30:58.370Z,53.60
2018-08-10T15:35:53.116Z,55.10
2018-08-10T15:40:47.609Z,56.70
2018-08-10T15:45:42.859Z,55.20
2018-08-10T15:50:37.645Z,54.90
2018-08-10T15:55:32.953Z,55.00
2018-08-10T16:00:27.481Z,56.10
2018-08-10T16:05:22.638Z,56.30
2018-08-10T16:10:17.168Z,54.70
2018-08-10T16:15:14.604Z,56.10
2018-08-10T16:20:10.775Z,57.60
2018-08-10T16:25:06.574Z,56.10
2018-08-10T16:30:02.689Z,56.90
2018-08-10T16:34:57.869Z,55.30
2018-08-10T16:39:52.401Z,55.60
2018-08-10T16:44:47.353Z,53.60
2018-08-10T16:49:41.809Z,56.40
2018-08-10T16:54:36.648Z,57.20
2018-08-10T16:59:31.394Z,57.30
2018-08-10T17:04:26.316Z,58.30
2018-08-10T17:09:20.672Z,60.30
2018-08-10T17:14:15.027Z,61.10
2018-08-10T17:19:09.375Z,61.10
2018-08-10T17:24:05.031Z,61.80
2018-08-10T17:28:59.436Z,61.40
2018-08-10T17:33:54.850Z,60.40
2018-08-10T17:38:49.032Z,61.10
2018-08-10T17:43:44.873Z,62.80
2018-08-10T17:48:39.228Z,65.30
2018-08-10T17:53:34.367Z,67.90
2018-08-10T17:58:29.175Z,68.70
2018-08-10T18:03:24.645Z,69.40
2018-08-10T18:08:19.767Z,69.40
2018-08-10T18:13:15.433Z,70.50
2018-08-10T18:18:09.893Z,71.60
2018-08-10T18:23:05.486Z,72.00
2018-08-10T18:27:59.995Z,72.40
2018-08-10T18:32:54.872Z,72.20
2018-08-10T18:37:51.557Z,72.90
2018-08-10T18:42:47.487Z,73.20
2018-08-10T18:47:42.577Z,73.70
2018-08-10T18:52:37.426Z,74.60
2018-08-10T18:57:31.856Z,75.20
2018-08-10T19:02:26.607Z,75.60
2018-08-10T19:07:21.843Z,76.20
2018-08-10T19:12:17.490Z,77.00
2018-08-10T19:17:12.499Z,77.50
2018-08-10T19:22:08.472Z,77.90
2018-08-10T19:27:04.597Z,78.30
2018-08-10T19:31:59.671Z,78.70
2018-08-10T19:37:00.583Z,79.00
2018-08-10T19:41:55.385Z,79.40
2018-08-10T19:46:50.250Z,79.20
2018-08-10T19:51:44.712Z,78.90
2018-08-10T19:56:39.490Z,78.40
2018-08-10T20:01:34.083Z,78.40
2018-08-10T20:06:28.558Z,79.00
2018-08-10T20:11:23.949Z,79.90
2018-08-10T20:16:18.596Z,79.60
2018-08-10T20:21:12.826Z,78.60
2018-08-10T20:26:07.499Z,78.00
2018-08-10T20:31:02.454Z,78.80
2018-08-10T20:35:56.961Z,79.70
2018-08-10T20:40:51.324Z,80.40
2018-08-10T20:45:47.863Z,80.70
2018-08-10T20:50:42.491Z,80.70
2018-08-10T20:55:37.545Z,79.10
2018-08-10T21:00:32.099Z,79.20
2018-08-10T21:05:27.908Z,78.20
2018-08-10T21:10:22.383Z,78.90
2018-08-10T21:15:17.659Z,79.70
2018-08-10T21:20:16.551Z,80.10
2018-08-10T21:25:12.345Z,80.20
2018-08-10T21:30:10.009Z,80.10
2018-08-10T21:35:05.181Z,80.80
2018-08-10T21:39:59.909Z,81.30
2018-08-10T21:44:54.429Z,81.20
2018-08-10T21:50:07.646Z,81.80
2018-08-10T21:55:03.155Z,78.30
2018-08-10T21:59:58.066Z,78.70
2018-08-10T22:04:53.027Z,80.60
2018-08-10T22:09:48.021Z,80.10
2018-08-10T22:14:47.504Z,81.10
2018-08-10T22:19:42.148Z,80.60
2018-08-10T22:24:37.465Z,80.80
2018-08-10T22:29:32.109Z,81.90
2018-08-10T22:34:26.591Z,82.40
2018-08-10T22:39:20.946Z,83.20
2018-08-10T22:44:15.289Z,83.30
2018-08-10T22:49:10.054Z,84.40
2018-08-10T22:54:05.623Z,84.50
2018-08-10T22:59:00.875Z,85.10
2018-08-10T23:03:55.065Z,86.80
2018-08-10T23:08:57.163Z,85.80
2018-08-10T23:13:59.027Z,86.30
2018-08-10T23:18:54.699Z,86.60
2018-08-10T23:23:49.304Z,87.30
2018-08-10T23:28:43.795Z,87.80
2018-08-10T23:33:37.840Z,88.90
2018-08-10T23:38:32.833Z,88.60
2018-08-10T23:43:27.281Z,89.40
2018-08-10T23:48:21.761Z,89.50
2018-08-10T23:53:15.888Z,90.30
2018-08-10T23:58:10.689Z,90.50
